ADDS METAR Data INFO
IDs: Format: Raw Decoded Include TAF

Data at: 1536 UTC 25 Feb 2018

KROW 251524Z 36005KT 10SM CLR 01/M11 A3002 RMK AO2 T00111111 $
KROW 251451Z 35005KT 10SM CLR M01/M11 A3000 RMK AO2 SLP155 T10111111 53015 $
KROW 251419Z 00000KT 10SM CLR M03/M11 A2999 RMK AO2 T10281106 $
KROW 251351Z 00000KT 10SM CLR M07/M12 A2998 RMK AO2 SLP149 T10721122 $
KROW 251251Z 06003KT 10SM CLR M05/M12 A2997 RMK AO2 SLP140 T10501122 $
KROW 251151Z AUTO 27007KT 10SM CLR M03/M12 A2995 RMK AO2 SLP129 T10331122 10017 21056 55001 $
KROW 251051Z AUTO 00000KT 10SM CLR M03/M13 A2995 RMK AO2 SLP126 T10281128 $
KROW 250951Z AUTO 17003KT 10SM CLR M05/M12 A2995 RMK AO2 SLP129 T10501122 $
KROW 250851Z AUTO 18004KT 10SM CLR M04/M12 A2996 RMK AO2 SLP132 T10441122 58008 $
KROW 250751Z AUTO 30004KT 10SM CLR M01/M12 A2997 RMK AO2 SLP131 T10061117 $
KROW 250651Z AUTO 01003KT 10SM CLR 00/M12 A2998 RMK AO2 SLP136 T00001122 401500000 $
KROW 250551Z AUTO 23004KT 10SM CLR 01/M13 A2999 RMK AO2 SLP138 T00111128 10139 20000 58001 $
KROW 250451Z AUTO 14005KT 10SM CLR 03/M13 A3000 RMK AO2 SLP140 T00281128
KROW 250351Z AUTO 14008KT 10SM CLR 04/M14 A2999 RMK AO2 SLP140 T00391139
KROW 250251Z 08003KT 10SM CLR 05/M14 A2999 RMK AO2 SLP143 T00501139 51017
KROW 250151Z AUTO 30005KT 10SM CLR 09/M15 A2998 RMK AO2 SLP139 T00891150
KROW 250051Z AUTO 33008KT 10SM CLR 12/M15 A2996 RMK AO2 SLP127 T01171150
KROW 242351Z AUTO 33009KT 10SM CLR 14/M15 A2993 RMK AO2 SLP113 T01391150 10150 20111 56003
KROW 242251Z AUTO 32011KT 10SM CLR 15/M16 A2993 RMK AO2 SLP113 T01501156
KROW 242151Z AUTO 30010KT 10SM CLR 14/M14 A2993 RMK AO2 SLP108 T01391144
KROW 242051Z 32015G25KT 10SM CLR 13/M14 A2994 RMK AO2 PK WND 33031/2004 SLP112 T01331144 58013
KROW 241951Z 33021G30KT 10SM CLR 12/M14 A2996 RMK AO2 PK WND 33032/1906 SLP120 T01221144
KROW 241851Z 33022G29KT 10SM CLR 12/M14 A2998 RMK AO2 PK WND 33035/1817 SLP126 T01171144
KROW 241751Z 32022G29KT 10SM CLR 11/M12 A2998 RMK AO2 PK WND 33033/1728 SLP127 T01111117 10111 20011 50002
KROW 241651Z 34021G29KT 10SM CLR 11/M11 A2999 RMK AO2 PK WND 33030/1637 SLP129 T01061106
KROW 241551Z 33016KT 10SM CLR 08/M07 A2999 RMK AO2 SLP130 T00831072 $
KROW 241451Z 02010KT 10SM CLR 04/M07 A2997 RMK AO2 SLP130 T00391072 51031 $
KROW 241351Z 02006KT 10SM CLR 02/M08 A2995 RMK AO2 SLP120 T00171078 $
KROW 241251Z 01006KT 10SM CLR 01/M08 A2991 RMK AO2 SLP101 T00111083
KROW 241151Z 35005KT 10SM CLR 03/M09 A2987 RMK AO2 SLP084 T00281089 10078 20011 53014
KROW 241051Z 35003KT 10SM CLR 02/M10 A2985 RMK AO2 SLP076 T00171100
KROW 240951Z 33008KT 10SM CLR 06/M12 A2983 RMK AO2 SLP062 T00561117
KROW 240851Z 17011KT 10SM CLR 06/M12 A2983 RMK AO2 SLP060 T00611117 56007
KROW 240751Z 18008KT 10SM CLR 06/M11 A2984 RMK AO2 SLP066 T00611111
KROW 240651Z 19009KT 10SM CLR 07/M11 A2984 RMK AO2 SLP072 T00671106 402281022
KROW 240551Z 19009KT 10SM CLR 08/M11 A2985 RMK AO2 SLP080 T00781111 10194 20072 58005
KROW 240451Z 18012KT 10SM CLR 08/M11 A2986 RMK AO2 SLP089 T00831111
KROW 240351Z 21008KT 10SM CLR 09/M12 A2986 RMK AO2 SLP090 T00941117